Time;durP1;ratioP1;P1;durP2;ratioP2;P2;SDS_P1;SDS_P2;PMS_P1;PMS_P2;Temp;Humidity;BMP_temperature;BMP_pressure;BME280_temperature;BME280_humidity;BME280_pressure;Samples;Min_cycle;Max_cycle;Signal;HPM_P1;HPM_P2
2021/05/10 00:00:54;;;;;;;6.88;2.08;;;19.70;96.00;;;;;;5096165;28;20028;-71
2021/05/10 00:03:21;;;;;;;4.88;2.10;;;19.60;96.90;;;;;;5096240;28;20107;-71
2021/05/10 00:05:47;;;;;;;3.90;2.13;;;19.50;97.60;;;;;;5096144;28;20017;-71
2021/05/10 00:08:12;;;;;;;3.10;1.80;;;19.40;98.90;;;;;;5094558;28;20024;-71
2021/05/10 00:10:40;;;;;;;6.13;2.03;;;19.30;99.10;;;;;;5095109;28;20100;-71
2021/05/10 00:13:07;;;;;;;4.63;1.92;;;19.30;99.60;;;;;;5096014;28;20119;-71
2021/05/10 00:15:33;;;;;;;2.80;1.95;;;19.20;99.90;;;;;;5095699;28;20031;-71
2021/05/10 00:18:02;;;;;;;3.03;1.85;;;19.10;99.90;;;;;;5095827;28;20469;-71
2021/05/10 00:20:30;;;;;;;3.17;1.75;;;19.20;99.90;;;;;;5095744;28;20106;-71
2021/05/10 00:22:56;;;;;;;3.83;2.08;;;19.00;99.90;;;;;;5094294;28;20078;-71
2021/05/10 00:25:22;;;;;;;2.83;1.70;;;19.00;99.90;;;;;;5095814;28;20081;-71
2021/05/10 00:27:48;;;;;;;4.72;1.88;;;19.00;99.90;;;;;;5096079;28;20435;-71
2021/05/10 00:30:14;;;;;;;2.65;1.90;;;19.00;99.90;;;;;;5096034;28;20023;-71
2021/05/10 00:32:39;;;;;;;5.53;2.20;;;18.90;99.90;;;;;;5095700;28;20044;-71
2021/05/10 00:35:05;;;;;;;5.13;2.13;;;18.80;99.90;;;;;;5094493;28;20074;-71
2021/05/10 00:37:31;;;;;;;3.80;2.50;;;18.70;99.90;;;;;;5095862;28;20149;-71
2021/05/10 00:39:56;;;;;;;2.60;2.00;;;18.40;99.90;;;;;;5095461;28;20086;-71
2021/05/10 00:42:22;;;;;;;9.25;1.95;;;18.30;99.90;;;;;;5095773;28;20020;-71
2021/05/10 00:44:47;;;;;;;6.32;2.10;;;18.10;99.90;;;;;;5095470;28;20031;-71
2021/05/10 00:47:13;;;;;;;5.93;2.20;;;17.90;99.90;;;;;;5095703;28;20500;-71
2021/05/10 00:49:38;;;;;;;5.22;2.10;;;17.90;99.90;;;;;;5095659;28;20028;-71
2021/05/10 00:52:04;;;;;;;2.60;1.90;;;17.80;99.90;;;;;;5095580;28;20105;-71
2021/05/10 00:54:30;;;;;;;4.93;2.10;;;17.80;99.90;;;;;;5095547;28;20504;-71
2021/05/10 00:56:56;;;;;;;4.13;2.45;;;17.90;99.90;;;;;;5095516;28;20031;-71
2021/05/10 00:59:21;;;;;;;6.55;2.22;;;17.90;99.90;;;;;;5095465;28;20043;-71
2021/05/10 01:01:47;;;;;;;4.03;2.40;;;18.10;99.90;;;;;;5093674;28;20427;-71
2021/05/10 01:04:12;;;;;;;7.30;1.90;;;18.20;99.90;;;;;;5095100;28;20016;-71
2021/05/10 01:06:38;;;;;;;4.03;2.00;;;18.40;99.90;;;;;;5095352;28;20024;-71
2021/05/10 01:09:04;;;;;;;4.18;1.85;;;18.40;99.90;;;;;;5095292;28;20462;-71
2021/05/10 01:11:30;;;;;;;3.20;2.30;;;18.40;99.90;;;;;;5093784;28;20032;-71
2021/05/10 01:13:56;;;;;;;9.68;2.45;;;18.50;99.90;;;;;;5094894;28;20089;-70
2021/05/10 01:16:21;;;;;;;6.65;2.13;;;18.40;99.90;;;;;;5095160;28;20035;-71
2021/05/10 01:18:47;;;;;;;3.28;1.95;;;18.40;99.90;;;;;;5093653;28;20024;-71
2021/05/10 01:21:13;;;;;;;6.38;2.22;;;18.50;99.90;;;;;;5094341;28;20055;-71
2021/05/10 01:23:38;;;;;;;5.65;2.30;;;18.40;99.90;;;;;;5094731;28;20031;-71
2021/05/10 01:26:04;;;;;;;5.78;2.40;;;18.40;99.90;;;;;;5093237;28;20024;-71
2021/05/10 01:28:30;;;;;;;9.50;2.10;;;18.50;99.90;;;;;;5094933;28;20035;-71
2021/05/10 01:30:56;;;;;;;3.72;2.08;;;18.50;99.90;;;;;;5094923;28;20028;-71
2021/05/10 01:33:21;;;;;;;3.83;2.30;;;18.40;99.90;;;;;;5094844;28;20457;-71
2021/05/10 01:35:50;;;;;;;4.30;2.15;;;18.10;99.90;;;;;;5094527;28;20024;-71
2021/05/10 01:38:16;;;;;;;7.53;2.28;;;18.10;99.90;;;;;;5094758;28;20020;-71
2021/05/10 01:40:42;;;;;;;4.20;2.30;;;18.00;99.90;;;;;;5094630;28;20111;-71
2021/05/10 01:43:08;;;;;;;7.15;2.40;;;18.10;99.90;;;;;;5094128;28;20059;-71
2021/05/10 01:45:34;;;;;;;3.75;2.08;;;18.10;99.90;;;;;;5094077;28;20469;-71
2021/05/10 01:48:03;;;;;;;4.40;2.13;;;18.10;99.90;;;;;;5094322;28;20028;-71
2021/05/10 01:50:29;;;;;;;5.05;2.00;;;18.10;99.90;;;;;;5094019;28;20536;-71
2021/05/10 01:52:54;;;;;;;5.72;2.20;;;18.10;99.90;;;;;;5094530;28;20051;-71
2021/05/10 01:55:22;;;;;;;4.03;2.00;;;18.10;99.90;;;;;;5094466;28;20462;-71
2021/05/10 01:57:50;;;;;;;4.80;2.42;;;18.00;99.90;;;;;;5093912;28;20016;-71
2021/05/10 02:00:19;;;;;;;5.63;2.30;;;18.10;99.90;;;;;;5094329;28;20115;-71
2021/05/10 02:02:44;;;;;;;3.58;2.08;;;18.00;99.90;;;;;;5094103;28;20427;-71
2021/05/10 02:05:17;;;;;;;7.13;2.40;;;18.00;99.90;;;;;;5094334;28;20103;-71
2021/05/10 02:07:53;;;;;;;5.50;2.33;;;18.00;99.90;;;;;;5093757;28;20517;-71
2021/05/10 02:10:30;;;;;;;2.40;2.20;;;18.00;99.90;;;;;;5094002;28;20036;-71
2021/05/10 02:12:59;;;;;;;5.40;2.13;;;18.00;99.90;;;;;;5093680;28;20489;-71
2021/05/10 02:15:27;;;;;;;6.28;2.50;;;18.00;99.90;;;;;;5093663;28;20055;-71
2021/05/10 02:17:53;;;;;;;7.57;2.42;;;18.00;99.90;;;;;;5094156;28;20462;-71
2021/05/10 02:20:20;;;;;;;6.75;2.50;;;17.90;99.90;;;;;;5093785;28;20131;-71
2021/05/10 02:23:04;;;;;;;4.43;1.83;;;17.80;99.90;;;;;;5094159;28;20153;-71
2021/05/10 02:25:33;;;;;;;5.35;2.03;;;17.70;99.90;;;;;;5093829;28;20110;-71
2021/05/10 02:28:00;;;;;;;4.20;2.60;;;17.60;99.90;;;;;;5094093;28;20026;-71
2021/05/10 02:30:29;;;;;;;6.88;2.20;;;17.60;99.90;;;;;;5093517;28;20023;-71
2021/05/10 02:32:55;;;;;;;5.78;2.38;;;17.50;99.90;;;;;;5093766;28;20059;-71
2021/05/10 02:35:21;;;;;;;6.43;2.50;;;17.40;99.90;;;;;;5094031;28;20051;-71
2021/05/10 02:37:48;;;;;;;3.90;2.40;;;17.40;99.90;;;;;;5093766;28;20137;-71
2021/05/10 02:40:14;;;;;;;7.70;2.97;;;17.50;99.90;;;;;;5093636;28;20024;-71
2021/05/10 02:42:40;;;;;;;3.65;2.30;;;17.60;99.90;;;;;;5095773;28;20031;-71
2021/05/10 02:45:08;;;;;;;6.30;2.63;;;17.70;99.90;;;;;;5096234;28;20472;-70
2021/05/10 02:47:34;;;;;;;4.70;2.28;;;17.70;99.90;;;;;;5097477;28;20024;-71
2021/05/10 02:50:01;;;;;;;6.90;2.28;;;17.70;99.90;;;;;;5097985;28;20081;-70
2021/05/10 02:52:27;;;;;;;6.95;2.63;;;17.80;99.90;;;;;;5097974;28;20012;-71
2021/05/10 02:54:52;;;;;;;9.18;2.22;;;17.80;99.90;;;;;;5097898;28;20145;-71
2021/05/10 02:57:18;;;;;;;4.25;2.40;;;17.70;99.90;;;;;;5097608;28;20503;-71
2021/05/10 02:59:44;;;;;;;4.63;2.40;;;17.60;99.90;;;;;;5097787;28;20016;-71
2021/05/10 03:02:10;;;;;;;5.43;2.47;;;17.50;99.90;;;;;;5097709;28;20412;-71
2021/05/10 03:04:35;;;;;;;3.55;2.20;;;17.40;99.90;;;;;;5097730;28;20016;-71
2021/05/10 03:07:01;;;;;;;4.88;2.50;;;17.40;99.90;;;;;;5097653;28;20578;-71
2021/05/10 03:09:26;;;;;;;5.85;2.15;;;17.50;99.90;;;;;;5097627;28;20027;-71
2021/05/10 03:11:52;;;;;;;5.28;2.42;;;17.50;99.90;;;;;;5097532;28;20449;-71
2021/05/10 03:14:18;;;;;;;3.22;2.28;;;17.60;99.90;;;;;;5097252;28;20113;-70
2021/05/10 03:16:44;;;;;;;5.55;2.47;;;17.60;99.90;;;;;;5097434;28;20377;-71
2021/05/10 03:19:10;;;;;;;4.38;2.25;;;17.70;99.90;;;;;;5078824;28;20035;-70
2021/05/10 03:21:37;;;;;;;7.45;3.13;;;17.70;99.90;;;;;;5097379;28;20469;-71
2021/05/10 03:24:05;;;;;;;6.75;2.80;;;17.80;99.90;;;;;;5097043;28;20465;-70
2021/05/10 03:26:31;;;;;;;4.57;2.70;;;17.90;99.90;;;;;;5096719;28;20020;-70
2021/05/10 03:28:57;;;;;;;6.10;2.63;;;17.90;99.90;;;;;;5096986;28;20457;-70
2021/05/10 03:31:22;;;;;;;3.47;2.53;;;18.00;99.90;;;;;;5097155;28;20027;-70
2021/05/10 03:33:48;;;;;;;5.05;2.40;;;18.00;99.90;;;;;;5097120;28;20036;-70
2021/05/10 03:36:13;;;;;;;3.50;2.30;;;18.10;99.90;;;;;;5095260;28;20028;-70
2021/05/10 03:38:39;;;;;;;3.70;2.47;;;18.00;99.90;;;;;;5096768;28;20095;-70
2021/05/10 03:41:04;;;;;;;4.75;2.33;;;17.90;99.90;;;;;;5096927;28;20530;-70
2021/05/10 03:43:30;;;;;;;4.82;2.42;;;18.00;99.90;;;;;;5096936;28;20528;-70
2021/05/10 03:45:55;;;;;;;2.97;2.15;;;17.90;99.90;;;;;;5096910;28;20028;-70
2021/05/10 03:48:21;;;;;;;6.55;2.22;;;17.80;99.90;;;;;;5096576;28;20028;-69
2021/05/10 03:50:46;;;;;;;4.68;2.47;;;17.90;99.90;;;;;;5096802;28;20073;-70
2021/05/10 03:53:12;;;;;;;4.50;2.20;;;17.90;99.90;;;;;;5096278;28;20024;-70
2021/05/10 03:55:39;;;;;;;3.08;2.08;;;17.90;99.90;;;;;;5096708;28;20107;-70
2021/05/10 03:58:05;;;;;;;3.75;2.38;;;17.90;99.90;;;;;;5096390;28;20070;-70
2021/05/10 04:00:31;;;;;;;3.55;2.22;;;17.90;99.90;;;;;;5096527;28;20060;-70
2021/05/10 04:02:59;;;;;;;5.32;2.28;;;17.90;99.90;;;;;;5096268;28;20082;-70
2021/05/10 04:08:39;;;;;;;7.22;2.67;;;18.00;99.90;;;;;;5095787;28;20020;-70
2021/05/10 04:11:03;;;;;;;3.53;2.42;;;18.00;99.90;;;;;;5095772;28;20028;-70
2021/05/10 04:13:50;;;;;;;;;;;18.00;99.90;;;;;;5096585;28;20035;-70
2021/05/10 04:16:14;;;;;;;4.20;2.00;;;18.00;99.90;;;;;;5095690;28;19999;-69
2021/05/10 04:18:39;;;;;;;5.38;2.47;;;18.10;99.90;;;;;;5096306;28;20456;-70
2021/05/10 04:21:05;;;;;;;6.32;2.40;;;18.10;99.90;;;;;;5095681;28;20482;-70
2021/05/10 04:23:31;;;;;;;5.07;2.20;;;18.20;99.90;;;;;;5096176;28;20115;-70
2021/05/10 04:25:56;;;;;;;3.80;2.40;;;18.20;99.90;;;;;;5096147;28;20020;-70
2021/05/10 04:28:23;;;;;;;3.03;2.20;;;18.30;99.90;;;;;;5095806;28;20024;-70
2021/05/10 04:30:51;;;;;;;8.45;2.53;;;18.30;99.90;;;;;;5095753;28;20020;-70
2021/05/10 04:33:24;;;;;;;5.25;2.40;;;18.30;99.90;;;;;;5094465;28;20024;-70
2021/05/10 04:35:50;;;;;;;6.20;2.17;;;18.30;99.90;;;;;;5095934;28;20117;-70
2021/05/10 04:38:15;;;;;;;3.47;2.30;;;18.20;99.90;;;;;;5095910;28;20419;-70
2021/05/10 04:40:41;;;;;;;4.55;2.50;;;18.20;99.90;;;;;;5095756;28;20024;-70
2021/05/10 04:43:07;;;;;;;4.65;2.33;;;18.30;99.90;;;;;;5095526;28;20067;-70
2021/05/10 04:45:33;;;;;;;5.90;2.75;;;18.40;99.90;;;;;;5095202;28;20048;-70
2021/05/10 04:47:58;;;;;;;5.20;2.58;;;18.60;99.90;;;;;;5095723;28;20050;-70
2021/05/10 04:50:24;;;;;;;4.65;2.28;;;18.80;99.90;;;;;;5095663;28;20028;-70
2021/05/10 04:52:50;;;;;;;6.43;2.88;;;19.00;99.90;;;;;;5095317;28;20107;-70
2021/05/10 04:55:16;;;;;;;5.50;2.30;;;19.20;99.90;;;;;;5095579;28;20028;-70
2021/05/10 04:57:43;;;;;;;3.97;1.98;;;19.50;99.90;;;;;;5095252;28;20372;-70
2021/05/10 05:00:10;;;;;;;7.43;2.28;;;19.80;99.90;;;;;;5095117;28;20028;-70
2021/05/10 05:02:36;;;;;;;5.82;1.90;;;20.10;99.90;;;;;;5095437;28;20048;-70
2021/05/10 05:05:04;;;;;;;5.60;2.25;;;20.30;99.90;;;;;;5093096;28;20500;-70
2021/05/10 05:07:30;;;;;;;7.35;2.10;;;20.40;99.90;;;;;;5095089;28;20023;-70
2021/05/10 05:09:55;;;;;;;5.32;2.10;;;20.50;99.90;;;;;;5094734;28;20020;-70
2021/05/10 05:12:21;;;;;;;4.75;1.98;;;20.40;99.90;;;;;;5094695;28;20076;-70
2021/05/10 05:14:46;;;;;;;2.60;1.90;;;20.30;99.90;;;;;;5095159;28;20028;-70
2021/05/10 05:17:12;;;;;;;4.93;2.38;;;20.20;99.90;;;;;;5095150;28;20465;-70
2021/05/10 05:19:37;;;;;;;5.97;1.90;;;20.20;99.90;;;;;;5093341;28;20484;-69
2021/05/10 05:22:03;;;;;;;4.78;2.10;;;20.10;99.90;;;;;;5094279;28;20044;-70
2021/05/10 05:24:28;;;;;;;3.60;1.80;;;20.10;99.90;;;;;;5094997;28;20412;-70
2021/05/10 05:26:54;;;;;;;2.78;1.88;;;20.20;99.90;;;;;;5094643;28;20024;-70
2021/05/10 05:29:22;;;;;;;3.28;2.05;;;20.30;99.90;;;;;;5093078;28;20059;-70
2021/05/10 05:31:49;;;;;;;6.30;2.08;;;20.40;99.90;;;;;;5094228;28;20016;-70
2021/05/10 05:34:16;;;;;;;3.97;2.20;;;20.40;99.90;;;;;;5094567;28;20058;-70
2021/05/10 05:36:41;;;;;;;6.82;2.35;;;20.30;99.90;;;;;;5094783;28;20078;-69
2021/05/10 05:39:07;;;;;;;3.15;2.00;;;20.30;99.90;;;;;;5094753;28;20458;-69
2021/05/10 05:41:34;;;;;;;4.85;2.58;;;20.30;99.90;;;;;;5094602;28;20032;-69
2021/05/10 05:43:59;;;;;;;4.75;2.10;;;20.30;99.90;;;;;;5094694;28;20496;-69
2021/05/10 05:46:26;;;;;;;8.02;2.25;;;20.60;99.90;;;;;;5093856;28;20103;-70
2021/05/10 05:48:52;;;;;;;6.07;2.30;;;20.90;99.90;;;;;;5094531;28;20039;-70
2021/05/10 05:51:17;;;;;;;2.95;2.10;;;21.10;99.90;;;;;;5094279;28;20105;-69
2021/05/10 05:53:43;;;;;;;5.38;2.10;;;21.20;99.90;;;;;;5094410;28;20024;-70
2021/05/10 05:56:08;;;;;;;8.15;1.92;;;21.30;99.90;;;;;;5094471;28;20146;-70
2021/05/10 05:58:34;;;;;;;8.40;2.20;;;21.40;99.90;;;;;;5094139;28;20381;-70
2021/05/10 06:01:00;;;;;;;6.82;2.03;;;21.40;99.90;;;;;;5094037;28;20035;-70
2021/05/10 06:03:25;;;;;;;3.78;1.80;;;21.50;99.90;;;;;;5091222;28;20024;-70
2021/05/10 06:05:51;;;;;;;5.55;2.00;;;21.40;99.90;;;;;;5093290;28;20083;-70
2021/05/10 06:08:17;;;;;;;4.60;2.10;;;21.30;99.90;;;;;;5093262;28;20022;-70
2021/05/10 06:10:43;;;;;;;7.00;2.00;;;21.30;99.90;;;;;;5093375;28;20024;-69
2021/05/10 06:13:09;;;;;;;5.65;2.03;;;21.30;99.90;;;;;;5093608;28;20024;-70
2021/05/10 06:15:35;;;;;;;5.43;2.10;;;21.30;99.90;;;;;;5093410;28;20549;-70
2021/05/10 06:18:01;;;;;;;6.00;2.13;;;21.20;99.90;;;;;;5092518;28;20055;-70
2021/05/10 06:20:27;;;;;;;4.22;1.83;;;21.20;99.90;;;;;;5093543;28;20393;-70
2021/05/10 06:22:53;;;;;;;5.18;2.22;;;21.10;99.90;;;;;;5092976;28;20058;-70
2021/05/10 06:25:19;;;;;;;5.57;2.05;;;21.10;99.90;;;;;;5093191;28;20020;-70
2021/05/10 06:27:45;;;;;;;4.72;1.95;;;21.10;99.90;;;;;;5092372;28;20062;-70
2021/05/10 06:30:13;;;;;;;5.60;2.08;;;21.10;99.90;;;;;;5092837;28;20028;-69
2021/05/10 06:32:39;;;;;;;6.22;2.20;;;21.10;99.90;;;;;;5093009;28;20016;-70
2021/05/10 06:35:05;;;;;;;5.72;1.80;;;21.10;99.90;;;;;;5092392;28;20028;-69
2021/05/10 06:37:30;;;;;;;6.18;2.00;;;21.00;99.90;;;;;;5092932;28;20059;-69
2021/05/10 06:39:57;;;;;;;5.60;2.08;;;21.00;99.90;;;;;;5091449;28;20066;-70
2021/05/10 06:42:23;;;;;;;7.55;2.13;;;21.10;99.90;;;;;;5092599;28;20024;-70
2021/05/10 06:44:48;;;;;;;3.67;1.90;;;21.10;99.90;;;;;;5072277;28;20027;-69
2021/05/10 06:47:14;;;;;;;7.90;2.40;;;20.90;99.90;;;;;;5083786;28;20024;-69
2021/05/10 06:49:39;;;;;;;5.13;1.80;;;20.90;99.90;;;;;;5089491;28;20032;-69
2021/05/10 06:52:05;;;;;;;5.30;1.85;;;20.90;99.90;;;;;;5089335;28;20085;-69
2021/05/10 06:54:30;;;;;;;5.72;2.03;;;20.80;99.90;;;;;;5092058;28;20051;-70
2021/05/10 06:56:56;;;;;;;4.13;1.90;;;20.80;99.90;;;;;;5093352;28;20034;-70
2021/05/10 06:59:22;;;;;;;11.45;2.35;;;20.80;99.90;;;;;;5092663;28;20028;-70
2021/05/10 07:01:47;;;;;;;6.25;2.17;;;20.90;99.90;;;;;;5090890;28;20420;-69
2021/05/10 07:04:13;;;;;;;3.90;1.70;;;20.90;99.90;;;;;;5092463;28;20084;-70
2021/05/10 07:06:39;;;;;;;10.45;2.05;;;20.90;99.90;;;;;;5091302;28;20077;-69
2021/05/10 07:09:05;;;;;;;7.35;2.42;;;20.90;99.90;;;;;;5092685;28;20024;-70
2021/05/10 07:11:33;;;;;;;4.22;2.08;;;20.90;99.90;;;;;;5091839;28;20036;-70
2021/05/10 07:13:58;;;;;;;3.75;2.13;;;20.90;99.90;;;;;;5091428;28;20480;-70
2021/05/10 07:16:24;;;;;;;5.95;2.28;;;20.90;99.90;;;;;;5092158;28;20063;-70
2021/05/10 07:18:49;;;;;;;5.93;2.00;;;20.90;99.90;;;;;;5088948;28;20147;-68
2021/05/10 07:21:15;;;;;;;6.38;2.40;;;20.90;99.90;;;;;;5090742;28;20036;-70
2021/05/10 07:23:40;;;;;;;6.38;1.95;;;21.00;99.90;;;;;;5089482;28;20024;-70
2021/05/10 07:26:06;;;;;;;6.07;2.05;;;21.10;99.90;;;;;;5091610;28;20103;-71
2021/05/10 07:28:31;;;;;;;3.67;1.92;;;21.10;99.90;;;;;;5092492;28;20027;-71
2021/05/10 07:30:57;;;;;;;4.97;2.13;;;21.20;99.90;;;;;;5093951;28;20028;-69
2021/05/10 07:33:25;;;;;;;8.93;2.30;;;21.30;99.90;;;;;;5093433;28;20039;-67
2021/05/10 07:35:51;;;;;;;9.63;2.20;;;21.60;99.90;;;;;;5095647;28;20059;-68
2021/05/10 07:38:17;;;;;;;5.10;1.80;;;22.00;99.90;;;;;;5094687;28;20512;-70
2021/05/10 07:40:42;;;;;;;6.57;1.90;;;22.70;99.90;;;;;;5078025;28;20062;-69
2021/05/10 07:43:08;;;;;;;7.88;1.75;;;23.90;99.00;;;;;;5096230;28;20024;-69
2021/05/10 07:45:34;;;;;;;8.88;1.95;;;24.50;97.10;;;;;;5073687;28;20032;-70
2021/05/10 07:48:00;;;;;;;4.72;2.00;;;25.60;95.20;;;;;;5083521;28;20497;-69
2021/05/10 07:50:27;;;;;;;5.65;1.90;;;26.10;91.30;;;;;;5093942;28;20428;-70
2021/05/10 07:52:54;;;;;;;4.32;1.52;;;24.60;91.60;;;;;;5095201;28;20466;-69
2021/05/10 07:55:23;;;;;;;5.15;1.65;;;24.90;93.10;;;;;;5095852;28;20024;-69
2021/05/10 07:57:49;;;;;;;6.10;1.92;;;25.50;91.50;;;;;;5094703;28;20538;-69
2021/05/10 08:00:19;;;;;;;2.85;1.80;;;25.70;91.30;;;;;;5077290;28;20051;-69
2021/05/10 08:02:48;;;;;;;3.17;1.48;;;26.10;90.20;;;;;;5095122;28;20020;-70
2021/05/10 08:05:13;;;;;;;2.53;1.65;;;26.20;88.00;;;;;;5075699;28;20416;-70
2021/05/10 08:07:40;;;;;;;2.10;1.90;;;26.30;86.90;;;;;;5093248;28;20024;-69
2021/05/10 08:10:06;;;;;;;2.53;1.60;;;26.90;85.20;;;;;;5094188;28;20388;-70
2021/05/10 08:12:33;;;;;;;2.97;1.60;;;27.10;80.70;;;;;;5095295;28;20119;-70
2021/05/10 08:14:58;;;;;;;1.77;1.27;;;27.40;78.50;;;;;;5093915;28;20515;-70
2021/05/10 08:17:25;;;;;;;2.63;1.20;;;27.20;74.90;;;;;;5095217;28;20036;-69
2021/05/10 08:19:51;;;;;;;4.40;1.58;;;27.40;73.00;;;;;;5075630;28;20039;-68
2021/05/10 08:22:16;;;;;;;3.47;1.27;;;27.10;74.20;;;;;;5094668;28;20119;-70
2021/05/10 08:24:42;;;;;;;2.15;1.45;;;26.50;73.60;;;;;;5092731;28;20043;-69
2021/05/10 08:27:08;;;;;;;4.13;1.60;;;25.60;77.20;;;;;;5074714;28;20354;-68
2021/05/10 08:29:34;;;;;;;4.30;1.73;;;25.80;78.10;;;;;;5093154;28;20027;-70
2021/05/10 08:32:00;;;;;;;2.50;1.23;;;25.50;81.50;;;;;;5093173;28;20034;-70
2021/05/10 08:34:26;;;;;;;4.57;1.50;;;25.80;81.00;;;;;;5093206;28;20028;-70
2021/05/10 08:36:54;;;;;;;5.60;1.60;;;25.60;81.30;;;;;;5060361;28;20035;-70
2021/05/10 08:39:20;;;;;;;5.03;1.70;;;26.10;76.90;;;;;;5093752;28;20020;-70
2021/05/10 08:41:46;;;;;;;2.92;1.60;;;26.40;77.70;;;;;;5094650;28;20051;-70
2021/05/10 08:44:12;;;;;;;3.30;1.80;;;26.00;76.00;;;;;;5094557;28;20012;-69
2021/05/10 08:46:39;;;;;;;3.28;1.48;;;25.80;75.70;;;;;;5093999;28;20103;-70
2021/05/10 08:49:06;;;;;;;4.55;1.60;;;25.80;76.30;;;;;;5094330;28;20019;-69
2021/05/10 08:51:34;;;;;;;2.70;1.63;;;26.60;72.70;;;;;;5093070;28;20040;-70
2021/05/10 08:54:00;;;;;;;3.47;1.92;;;26.60;72.70;;;;;;5094307;28;20019;-70
2021/05/10 08:56:26;;;;;;;3.60;1.67;;;26.70;69.30;;;;;;5094427;28;20086;-70
2021/05/10 08:58:52;;;;;;;2.55;1.55;;;26.20;71.70;;;;;;5092733;28;20483;-70
2021/05/10 09:01:21;;;;;;;3.58;1.55;;;26.00;71.70;;;;;;5092944;28;20032;-69
2021/05/10 09:03:49;;;;;;;3.78;1.38;;;26.30;72.00;;;;;;5094612;28;20028;-69
2021/05/10 09:06:19;;;;;;;5.80;1.60;;;26.70;67.30;;;;;;5092081;28;20519;-70
2021/05/10 09:08:47;;;;;;;2.38;1.63;;;26.30;68.50;;;;;;5092879;28;20036;-70
2021/05/10 09:11:15;;;;;;;6.13;1.80;;;25.10;71.60;;;;;;5091704;28;20069;-70
2021/05/10 09:13:47;;;;;;;4.28;1.20;;;25.10;75.00;;;;;;5093440;28;20128;-70
2021/05/10 09:16:14;;;;;;;3.95;1.40;;;24.50;74.80;;;;;;5074401;28;20455;-70
2021/05/10 09:18:53;;;;;;;3.75;1.40;;;26.00;71.50;;;;;;5092951;28;20060;-69
2021/05/10 09:21:21;;;;;;;3.90;1.42;;;25.90;69.60;;;;;;5089482;28;20039;-69
2021/05/10 09:23:47;;;;;;;3.67;1.95;;;25.60;70.30;;;;;;5094135;28;20099;-69
2021/05/10 09:26:25;;;;;;;4.70;1.50;;;25.50;70.90;;;;;;5092912;28;20115;-70
2021/05/10 09:28:51;;;;;;;3.00;1.45;;;26.20;69.10;;;;;;5092942;28;20020;-69
2021/05/10 09:31:16;;;;;;;4.38;1.67;;;25.60;68.20;;;;;;5093897;28;20032;-70
2021/05/10 09:33:45;;;;;;;5.22;1.50;;;24.60;72.60;;;;;;5092572;28;20381;-69
2021/05/10 09:36:31;;;;;;;2.75;1.40;;;24.10;77.30;;;;;;5093522;28;20084;-70
2021/05/10 09:38:59;;;;;;;5.47;1.60;;;24.20;76.20;;;;;;5072129;28;20506;-69
2021/05/10 09:41:25;;;;;;;3.92;1.67;;;24.10;77.60;;;;;;5093261;28;20085;-70
2021/05/10 09:44:00;;;;;;;7.22;2.00;;;24.70;77.90;;;;;;5092907;28;20466;-70
2021/05/10 09:46:46;;;;;;;4.57;2.05;;;25.80;76.50;;;;;;5091945;28;20013;-70
2021/05/10 09:49:13;;;;;;;4.72;1.63;;;25.70;73.40;;;;;;5092982;28;20064;-70
2021/05/10 09:51:39;;;;;;;5.28;1.50;;;25.60;74.70;;;;;;5091421;28;20056;-70
2021/05/10 09:54:13;;;;;;;5.40;1.65;;;25.70;75.50;;;;;;5092060;28;20408;-70
2021/05/10 09:56:40;;;;;;;3.30;1.60;;;26.00;74.20;;;;;;5093000;28;20027;-70
2021/05/10 09:59:13;;;;;;;2.30;1.58;;;24.80;76.00;;;;;;5092361;28;20074;-70
2021/05/10 10:01:48;;;;;;;1.52;1.40;;;24.00;81.40;;;;;;5093159;28;20370;-70
2021/05/10 10:04:17;;;;;;;3.78;1.70;;;23.80;83.80;;;;;;5092987;28;20028;-70
2021/05/10 10:06:44;;;;;;;4.13;1.75;;;23.30;86.20;;;;;;5093095;28;20385;-70
2021/05/10 10:09:10;;;;;;;2.58;1.70;;;23.20;89.60;;;;;;5093074;28;20028;-70
2021/05/10 10:11:35;;;;;;;3.25;1.67;;;22.60;90.30;;;;;;5092828;28;20443;-69
2021/05/10 10:14:02;;;;;;;6.00;1.58;;;22.20;92.20;;;;;;5092245;28;20389;-71
2021/05/10 10:16:30;;;;;;;7.20;1.70;;;21.80;92.80;;;;;;5093073;28;20035;-69
2021/05/10 10:19:01;;;;;;;4.93;1.38;;;21.50;94.50;;;;;;5091700;28;20035;-71
2021/05/10 10:21:27;;;;;;;2.67;1.20;;;21.30;95.80;;;;;;5074881;28;20381;-68
2021/05/10 10:24:05;;;;;;;3.95;1.42;;;21.40;96.00;;;;;;5091566;28;20058;-69
2021/05/10 10:26:34;;;;;;;3.20;1.10;;;21.40;96.20;;;;;;5091907;28;20031;-69
2021/05/10 10:29:07;;;;;;;4.85;1.40;;;21.30;95.60;;;;;;5091609;28;20024;-69
2021/05/10 10:31:38;;;;;;;2.97;0.88;;;21.20;95.60;;;;;;5091772;28;20119;-68
2021/05/10 10:34:09;;;;;;;1.30;0.90;;;21.30;95.00;;;;;;5075043;28;20468;-68
2021/05/10 10:36:54;;;;;;;1.65;1.00;;;21.40;94.90;;;;;;5075140;28;20024;-69
2021/05/10 10:39:27;;;;;;;2.90;1.05;;;21.50;95.30;;;;;;5092153;28;20024;-70
2021/05/10 10:42:17;;;;;;;1.60;1.00;;;21.50;95.60;;;;;;5091680;28;20035;-69
2021/05/10 10:44:52;;;;;;;2.10;0.60;;;21.40;95.70;;;;;;5091979;28;20132;-70
2021/05/10 10:47:44;;;;;;;2.92;1.00;;;21.60;95.30;;;;;;5090433;28;20029;-70
2021/05/10 10:50:18;;;;;;;3.60;1.00;;;21.70;94.90;;;;;;5089550;28;20085;-70
2021/05/10 10:55:27;;;;;;;2.13;1.20;;;21.80;95.10;;;;;;5110372;27;20420;-67
2021/05/10 10:58:14;;;;;;;1.38;0.98;;;22.10;94.40;;;;;;5111146;28;20511;-68
2021/05/10 11:01:01;;;;;;;1.20;0.95;;;22.10;94.10;;;;;;5109717;28;20461;-68
2021/05/10 11:03:28;;;;;;;1.63;0.90;;;22.20;93.50;;;;;;5092924;28;20115;-69
2021/05/10 11:05:54;;;;;;;1.98;1.13;;;22.10;93.90;;;;;;5110298;28;20047;-68
2021/05/10 11:14:12;;;;;;;2.42;0.95;;;22.20;93.50;;;;;;5127953;27;20370;-69
2021/05/10 11:16:55;;;;;;;3.83;1.13;;;22.40;93.40;;;;;;5097023;28;20035;-68
2021/05/10 11:19:38;;;;;;;2.83;0.95;;;22.70;92.50;;;;;;5124411;28;20016;-69
2021/05/10 11:22:32;;;;;;;2.65;1.25;;;22.80;92.10;;;;;;5093192;28;20389;-69
2021/05/10 11:25:39;;;;;;;1.52;0.80;;;23.00;92.50;;;;;;5088712;28;20032;-69
2021/05/10 11:28:28;;;;;;;2.78;0.80;;;22.90;90.90;;;;;;5114383;28;20469;-69
2021/05/10 11:30:55;;;;;;;2.58;0.80;;;22.60;91.80;;;;;;5110454;28;20087;-69
2021/05/10 11:34:00;;;;;;;0.57;0.57;;;22.40;92.30;;;;;;5129483;28;20019;-69
2021/05/10 11:36:31;;;;;;;4.65;0.93;;;21.90;92.00;;;;;;5108954;28;20043;-69
2021/05/10 11:39:03;;;;;;;6.97;1.52;;;21.60;92.40;;;;;;5110412;28;20012;-68
2021/05/10 11:41:31;;;;;;;1.52;0.52;;;21.60;92.60;;;;;;5095164;28;20015;-69
2021/05/10 11:43:58;;;;;;;5.90;1.00;;;22.00;92.20;;;;;;5106022;28;20062;-70
2021/05/10 11:46:40;;;;;;;1.67;0.65;;;22.20;91.50;;;;;;5102124;28;20034;-71
2021/05/10 11:49:08;;;;;;;4.40;0.75;;;22.30;91.30;;;;;;5094439;28;20051;-71
2021/05/10 11:51:36;;;;;;;2.75;0.77;;;21.90;91.50;;;;;;5131054;28;20030;-68
2021/05/10 11:54:05;;;;;;;5.78;1.00;;;21.70;92.70;;;;;;5098401;28;20099;-65
2021/05/10 11:56:38;;;;;;;2.05;1.00;;;21.30;92.80;;;;;;5095825;28;20058;-69
2021/05/10 11:59:22;;;;;;;7.25;0.90;;;21.10;93.70;;;;;;5109511;28;20020;-68
2021/05/10 12:01:48;;;;;;;2.83;0.88;;;21.10;93.70;;;;;;5076312;28;20395;-70
2021/05/10 12:04:17;;;;;;;2.35;0.85;;;20.90;93.90;;;;;;5091954;28;20020;-70
2021/05/10 12:06:46;;;;;;;1.23;0.63;;;20.80;93.80;;;;;;5074812;28;20051;-70
2021/05/10 12:09:40;;;;;;;2.15;0.90;;;20.80;93.60;;;;;;5109489;28;20022;-68
2021/05/10 12:14:53;;;;;;;3.55;0.70;;;21.00;93.40;;;;;;5090751;28;20355;-68
2021/05/10 12:17:24;;;;;;;2.88;1.00;;;21.90;92.70;;;;;;5087221;28;20031;-70
2021/05/10 12:19:54;;;;;;;0.88;0.70;;;22.10;91.90;;;;;;5090337;28;20048;-70
2021/05/10 12:22:24;;;;;;;1.05;0.52;;;22.30;91.40;;;;;;5089393;28;20453;-70
2021/05/10 12:25:31;;;;;;;2.40;0.70;;;22.40;91.40;;;;;;5089092;28;20044;-70
2021/05/10 12:28:24;;;;;;;2.95;0.70;;;22.40;91.20;;;;;;5090656;28;20020;-67
2021/05/10 12:30:55;;;;;;;1.92;0.70;;;22.70;91.20;;;;;;5090181;28;20470;-69
2021/05/10 12:33:26;;;;;;;1.38;0.85;;;22.70;89.60;;;;;;5073641;28;20039;-69
2021/05/10 12:35:59;;;;;;;1.58;1.05;;;22.60;89.00;;;;;;5089860;28;20385;-69
2021/05/10 12:38:28;;;;;;;1.67;0.70;;;22.50;89.90;;;;;;5090300;28;20024;-69
2021/05/10 12:40:54;;;;;;;1.60;0.70;;;22.50;89.70;;;;;;5088418;28;20056;-68
2021/05/10 12:43:22;;;;;;;4.47;1.33;;;22.50;90.10;;;;;;5088850;28;20491;-68
2021/05/10 12:46:04;;;;;;;4.05;1.23;;;22.80;90.60;;;;;;5089743;28;20099;-68
2021/05/10 12:48:36;;;;;;;2.50;0.73;;;22.80;90.30;;;;;;5090228;28;20021;-69
2021/05/10 12:53:41;;;;;;;0.93;0.60;;;22.60;88.80;;;;;;5070381;28;20346;-69
2021/05/10 12:56:10;;;;;;;0.70;0.63;;;22.60;87.10;;;;;;5070531;28;20025;-69
2021/05/10 12:58:42;;;;;;;1.10;0.75;;;22.80;88.90;;;;;;5070615;28;20056;-70
2021/05/10 13:01:29;;;;;;;7.15;0.80;;;22.80;86.70;;;;;;5070897;28;20107;-70
2021/05/10 13:06:37;;;;;;;2.95;0.90;;;22.70;85.40;;;;;;5111762;27;20374;-68
2021/05/10 13:09:07;;;;;;;2.22;0.93;;;22.70;87.80;;;;;;5109554;28;20027;-68
2021/05/10 13:11:37;;;;;;;5.50;0.90;;;22.80;87.20;;;;;;5109736;28;20099;-64
2021/05/10 13:14:09;;;;;;;5.68;1.30;;;22.80;89.30;;;;;;5110578;28;20027;-64